Airfield :
LOGIN :

Register | Disclaimer

   EN    FR    IT 

 










Legend :    VFR   Marginal VFR   IFR   Intensive IFR   Very Intensive IFR
Visi :
Ceiling :
>= 8 km
>= 3000ft
5 to 8 km
1000 to 3000 ft
1500m to 5 km
500 to 1000 ft
800 to 1500m
200 to 500 ft
< 800m
< 200 ft
Symbols :   Thunderstorms  Fog  Heavy snow  Heavy precipitations  Wind > 20 kt
SIGMETs :     Misc.  Thunderstorms  Icing  Turbulence  Mountain Waves  Volcanic Ashes







- Airport Elevation : 124 ft
- IATA code : RNS
- Download approach charts


LFRN - Rennes

CURRENT METAR :
  • 171100Z AUTO 35008KT 320V020 9999 FEW033 SCT048 BKN054 21/11 Q1023 NOSIG

EXPIRED METARs :
  • 171030Z AUTO 31007KT 270V350 9999 BKN031 BKN049 19/13 Q1023 NOSIG
  • 171000Z AUTO 32007KT 9999 SCT027 SCT033 BKN041 19/13 Q1023 NOSIG
  • 170930Z AUTO 34007KT 290V020 9999 BKN021 BKN030 19/13 Q1023 NOSIG
  • 170900Z AUTO 33007KT 290V020 9999 FEW018 18/14 Q1023 NOSIG
  • 170830Z AUTO 32006KT 290V350 9999 FEW046 17/14 Q1023 NOSIG

TAF TAF LFRN
Valid from the 17 at 06:00 until the 18 at 06:00 UTC


170500Z 1706/1806 30005KT 9999 SCT020
BECMG 1708/1710 32010KT
BECMG 1719/1721 VRB03KT
TEMPO 1803/1806 3000 MIFG
ATIS : +33 2 99 67 72 50
No reported NOTAMs for that airfield.



MET'MAP, your aeronautical weather chart ! - Copyright ORBIFLY December 2007 - Disclaimer

ORBIFLY MET'MAP TEAM :

Programming & Development : Alexandra Zaïnal
Concept & Development : Baudouin d'Aumeries
Co-Development & Prog : Marc-Olivier Méhu
Technical & hardware support : Manuel Goepfert

Contact : metmap@orbifly.com




SOURCES & CREDITS :

   NOAA